createdAt,value
2023-04-20T05:01:02.178Z,100320.84
2023-04-20T05:03:28.922Z,100326.16
2023-04-20T05:05:56.557Z,100322.69
2023-04-20T05:08:24.467Z,100331.50
2023-04-20T05:10:51.738Z,100321.94
2023-04-20T05:13:18.466Z,100320.22
2023-04-20T05:15:45.638Z,100322.78
2023-04-20T05:18:12.107Z,100323.72
2023-04-20T05:20:39.277Z,100328.09
2023-04-20T05:23:05.889Z,100329.00
2023-04-20T05:25:32.853Z,100332.50
2023-04-20T05:28:00.157Z,100337.78
2023-04-20T05:30:26.985Z,100335.16
2023-04-20T05:32:54.146Z,100327.22
2023-04-20T05:35:21.447Z,100336.00
2023-04-20T05:37:49.073Z,100333.31
2023-04-20T05:40:15.848Z,100333.28
2023-04-20T05:42:43.294Z,100327.06
2023-04-20T05:45:10.653Z,100338.44
2023-04-20T05:47:37.918Z,100332.28
2023-04-20T05:50:05.917Z,100341.16
2023-04-20T05:52:33.215Z,100337.66
2023-04-20T05:55:00.085Z,100340.28
2023-04-20T05:57:27.801Z,100337.66
2023-04-20T05:59:56.117Z,100334.19
2023-04-20T06:02:23.347Z,100337.66
2023-04-20T06:04:50.351Z,100326.22
2023-04-20T06:07:17.955Z,100335.94
2023-04-20T06:09:44.797Z,100339.44
2023-04-20T06:12:13.534Z,100337.66
2023-04-20T06:14:40.543Z,100341.16
2023-04-20T06:17:08.765Z,100344.72
2023-04-20T06:19:35.388Z,100343.84
2023-04-20T06:22:07.820Z,100335.00
2023-04-20T06:24:35.413Z,100343.72
2023-04-20T06:27:02.836Z,100341.03
2023-04-20T06:29:29.366Z,100341.03
2023-04-20T06:31:56.253Z,100345.31
2023-04-20T06:34:22.792Z,100337.38
2023-04-20T06:36:49.947Z,100339.09
2023-04-20T06:39:17.677Z,100346.09
2023-04-20T06:41:44.820Z,100339.91
2023-04-20T06:44:13.976Z,100340.81
2023-04-20T06:46:40.892Z,100336.31
2023-04-20T06:49:07.466Z,100342.44
2023-04-20T06:51:35.013Z,100337.16
2023-04-20T06:54:01.613Z,100341.56
2023-04-20T06:56:28.758Z,100337.16
2023-04-20T06:58:55.382Z,100336.31
2023-04-20T07:01:22.561Z,100331.09
2023-04-20T07:03:49.503Z,100344.25
2023-04-20T07:06:17.279Z,100337.19
2023-04-20T07:08:43.896Z,100333.66
2023-04-20T07:11:11.155Z,100331.75
2023-04-20T07:13:37.782Z,100329.88
2023-04-20T07:16:05.276Z,100335.13
2023-04-20T07:18:33.983Z,100339.41
2023-04-20T07:21:02.690Z,100334.94
2023-04-20T07:23:29.250Z,100322.53
2023-04-20T07:25:56.199Z,100329.59
2023-04-20T07:28:22.778Z,100331.38
2023-04-20T07:30:49.642Z,100320.75
2023-04-20T07:33:16.227Z,100324.16
2023-04-20T07:35:43.236Z,100321.38
2023-04-20T07:38:10.736Z,100323.00
2023-04-20T07:40:37.585Z,100334.38
2023-04-20T07:43:04.145Z,100327.34
2023-04-20T07:45:30.788Z,100329.06
2023-04-20T07:47:57.577Z,100318.63
2023-04-20T07:50:28.005Z,100319.63
2023-04-20T07:52:54.756Z,100330.94
2023-04-20T07:55:22.123Z,100327.28
2023-04-20T07:57:48.731Z,100328.91
2023-04-20T08:00:16.307Z,100328.63
2023-04-20T08:02:45.293Z,100327.41
2023-04-20T08:05:12.612Z,100325.38
2023-04-20T08:07:40.311Z,100331.28
2023-04-20T08:10:08.461Z,100331.00
2023-04-20T08:12:36.021Z,100334.34
2023-04-20T08:15:06.389Z,100330.47
2023-04-20T08:17:34.160Z,100323.44
2023-04-20T08:20:01.596Z,100322.53
2023-04-20T08:22:30.164Z,100324.06
2023-04-20T08:24:57.892Z,100328.59
2023-04-20T08:27:26.537Z,100329.63
2023-04-20T08:29:53.114Z,100335.88
2023-04-20T08:32:23.195Z,100328.88
2023-04-20T08:34:52.099Z,100335.88
2023-04-20T08:37:18.815Z,100333.09
2023-04-20T08:39:46.431Z,100329.53
2023-04-20T08:42:13.161Z,100335.09
2023-04-20T08:44:40.764Z,100334.25
2023-04-20T08:47:10.321Z,100344.00
2023-04-20T08:49:39.444Z,100339.47
2023-04-20T08:52:10.995Z,100330.75
2023-04-20T08:54:45.854Z,100332.47
2023-04-20T08:57:20.475Z,100337.00
2023-04-20T08:59:47.565Z,100342.25
2023-04-20T09:02:14.575Z,100338.78
2023-04-20T09:04:41.940Z,100340.28
2023-04-20T09:07:18.824Z,100340.78
2023-04-20T09:09:59.717Z,100353.03
2023-04-20T09:12:27.985Z,100338.97
2023-04-20T09:14:56.319Z,100341.28
2023-04-20T09:17:37.218Z,100341.75
2023-04-20T09:20:05.374Z,100332.38
2023-04-20T09:22:37.090Z,100328.88
2023-04-20T09:25:18.084Z,100329.00
2023-04-20T09:28:04.853Z,100335.22
2023-04-20T09:31:05.617Z,100319.88
2023-04-20T09:33:40.544Z,100343.03
2023-04-20T09:36:08.284Z,100322.94
2023-04-20T09:38:40.667Z,100330.16
2023-04-20T09:41:27.190Z,100333.28
2023-04-20T09:43:54.212Z,100334.63
2023-04-20T09:46:21.779Z,100340.91
2023-04-20T09:48:49.185Z,100340.06
2023-04-20T09:51:16.906Z,100326.38
2023-04-20T09:53:46.086Z,100328.09
2023-04-20T09:56:15.954Z,100329.66
2023-04-20T10:01:54.755Z,100331.03
2023-04-20T10:04:24.414Z,100328.28
2023-04-20T10:06:55.144Z,100343.25
2023-04-20T10:09:26.905Z,100330.63
2023-04-20T10:12:06.442Z,100326.22
2023-04-20T10:14:33.087Z,100332.84
2023-04-20T10:17:09.322Z,100332.72
2023-04-20T10:19:40.517Z,100321.94
2023-04-20T10:22:42.073Z,100316.19
2023-04-20T10:25:21.748Z,100325.75
2023-04-20T10:28:08.983Z,100334.44
2023-04-20T10:30:51.927Z,100332.84
2023-04-20T10:33:19.865Z,100341.16
2023-04-20T10:35:51.179Z,100335.41
2023-04-20T10:38:48.354Z,100335.59
2023-04-20T10:41:18.854Z,100337.78
2023-04-20T10:43:45.883Z,100341.44
2023-04-20T10:46:20.420Z,100341.81
2023-04-20T10:49:02.777Z,100337.28
2023-04-20T10:51:34.686Z,100327.84
2023-04-20T10:54:06.752Z,100337.81
2023-04-20T10:56:42.333Z,100333.38
2023-04-20T10:59:10.160Z,100323.75
2023-04-20T11:01:41.684Z,100329.59
2023-04-20T11:04:10.712Z,100327.53
2023-04-20T11:06:42.406Z,100323.34
2023-04-20T11:09:26.718Z,100321.06
2023-04-20T11:12:05.879Z,100306.22
2023-04-20T11:14:34.851Z,100302.06
2023-04-20T11:17:02.275Z,100304.94
2023-04-20T11:19:34.296Z,100295.75
2023-04-20T11:22:02.920Z,100286.97
2023-04-20T11:24:31.871Z,100298.75
2023-04-20T11:26:59.217Z,100293.69
2023-04-20T11:29:36.011Z,100297.88
2023-04-20T11:32:09.222Z,100300.28
2023-04-20T11:34:38.348Z,100283.84
2023-04-20T11:37:07.703Z,100302.16
2023-04-20T11:39:34.545Z,100290.81
2023-04-20T11:42:02.384Z,100295.06
2023-04-20T11:44:29.221Z,100310.00
2023-04-20T11:47:00.542Z,100304.16
2023-04-20T11:49:33.407Z,100290.50
2023-04-20T11:52:08.452Z,100292.78
2023-04-20T11:54:35.517Z,100280.09
2023-04-20T11:57:03.340Z,100297.13
2023-04-20T11:59:30.450Z,100291.34
2023-04-20T12:01:58.120Z,100287.81
2023-04-20T12:04:41.451Z,100284.56
2023-04-20T12:07:08.982Z,100293.78
2023-04-20T12:09:37.268Z,100284.03
2023-04-20T12:12:05.937Z,100278.94
2023-04-20T12:14:36.418Z,100282.56
2023-04-20T12:17:05.241Z,100282.41
2023-04-20T12:19:32.027Z,100286.81
2023-04-20T12:21:59.541Z,100285.84
2023-04-20T12:24:26.364Z,100283.78
2023-04-20T12:26:53.540Z,100277.69
2023-04-20T12:29:20.806Z,100273.19
2023-04-20T12:31:48.332Z,100267.13
2023-04-20T12:34:15.001Z,100272.38
2023-04-20T12:36:42.256Z,100266.31
2023-04-20T12:39:08.886Z,100268.53
2023-04-20T12:41:36.460Z,100273.97
2023-04-20T12:44:06.583Z,100263.19
2023-04-20T12:46:35.098Z,100270.66
2023-04-20T12:49:01.745Z,100263.94
2023-04-20T12:51:29.016Z,100273.88
2023-04-20T12:53:55.581Z,100277.22
2023-04-20T12:56:22.906Z,100275.06
2023-04-20T12:58:49.474Z,100265.72
2023-04-20T13:01:16.718Z,100278.94
2023-04-20T13:03:43.724Z,100265.53
2023-04-20T13:06:14.268Z,100266.06
2023-04-20T13:08:41.321Z,100258.75
2023-04-20T13:11:12.282Z,100262.69
2023-04-20T13:13:38.956Z,100254.50
2023-04-20T13:16:06.390Z,100259.41
2023-04-20T13:18:33.665Z,100252.38
2023-04-20T13:21:00.981Z,100254.81
2023-04-20T13:23:27.520Z,100249.25
2023-04-20T13:25:54.834Z,100252.63
2023-04-20T13:28:21.438Z,100245.25
2023-04-20T13:30:48.628Z,100256.31
2023-04-20T13:33:15.344Z,100249.97
2023-04-20T13:35:43.295Z,100254.63
2023-04-20T13:38:09.892Z,100236.75
2023-04-20T13:40:36.998Z,100239.94
2023-04-20T13:43:04.671Z,100235.81
2023-04-20T13:45:32.174Z,100214.56
2023-04-20T13:47:59.001Z,100227.13
2023-04-20T13:50:26.014Z,100235.16
2023-04-20T13:52:52.567Z,100226.63
2023-04-20T13:55:20.926Z,100228.41
2023-04-20T13:57:47.660Z,100231.75
2023-04-20T14:00:14.751Z,100234.47
2023-04-20T14:02:41.503Z,100226.75
2023-04-20T14:05:09.686Z,100216.50
2023-04-20T14:07:36.237Z,100212.75
2023-04-20T14:10:03.247Z,100217.53
2023-04-20T14:12:30.462Z,100207.41
2023-04-20T14:14:58.448Z,100200.75
2023-04-20T14:17:25.522Z,100196.69
2023-04-20T14:19:52.894Z,100195.78
2023-04-20T14:22:20.115Z,100190.06
2023-04-20T14:24:47.576Z,100190.06
2023-04-20T14:27:14.971Z,100190.06
2023-04-20T14:29:41.904Z,100186.25
2023-04-20T14:32:08.924Z,100185.09
2023-04-20T14:34:35.438Z,100175.53
2023-04-20T14:37:02.573Z,100180.06
2023-04-20T14:39:29.055Z,100184.59
2023-04-20T14:41:56.511Z,100186.34
2023-04-20T14:44:23.029Z,100185.47
2023-04-20T14:46:50.303Z,100179.25
2023-04-20T14:49:16.859Z,100183.16
2023-04-20T14:51:44.085Z,100185.06
2023-04-20T14:54:10.944Z,100194.44
2023-04-20T14:56:38.154Z,100192.84
2023-04-20T14:59:04.838Z,100191.13
2023-04-20T15:01:32.066Z,100199.31
2023-04-20T15:03:58.763Z,100193.16
2023-04-20T15:06:26.227Z,100184.91
2023-04-20T15:08:54.508Z,100188.81
2023-04-20T15:11:21.727Z,100185.38
2023-04-20T15:13:49.436Z,100187.59
2023-04-20T15:16:16.625Z,100183.16
2023-04-20T15:18:43.390Z,100189.72
2023-04-20T15:21:11.196Z,100184.00
2023-04-20T15:23:37.942Z,100183.00
2023-04-20T15:26:05.314Z,100182.16
2023-04-20T15:28:32.031Z,100189.28
2023-04-20T15:31:00.490Z,100175.59
2023-04-20T15:33:27.042Z,100187.25
2023-04-20T15:35:54.366Z,100182.72
2023-04-20T15:38:20.917Z,100183.75
2023-04-20T15:40:49.458Z,100184.88
2023-04-20T15:43:16.300Z,100177.31
2023-04-20T15:45:45.026Z,100181.34
2023-04-20T15:48:11.794Z,100179.88
2023-04-20T15:50:39.935Z,100179.28
2023-04-20T15:53:07.328Z,100167.97
2023-04-20T15:55:38.357Z,100173.41
2023-04-20T15:58:05.629Z,100164.75
2023-04-20T16:00:32.376Z,100163.03
2023-04-20T16:03:02.016Z,100168.34
2023-04-20T16:05:29.160Z,100167.53
2023-04-20T16:07:57.291Z,100159.84
2023-04-20T16:10:24.130Z,100158.25
2023-04-20T16:12:51.885Z,100156.72
2023-04-20T16:15:19.731Z,100157.69
2023-04-20T16:17:48.195Z,100162.28
2023-04-20T16:20:41.505Z,100167.59
2023-04-20T16:23:08.574Z,100163.25
2023-04-20T16:25:36.522Z,100165.84
2023-04-20T16:28:06.618Z,100174.66
2023-04-20T16:30:40.471Z,100170.38
2023-04-20T16:35:53.688Z,100175.00
2023-04-20T16:38:21.572Z,100183.75
2023-04-20T16:40:48.915Z,100180.41
2023-04-20T16:43:16.859Z,100188.72
2023-04-20T16:45:46.198Z,100181.69
2023-04-20T16:48:13.343Z,100178.06
2023-04-20T16:50:42.190Z,100173.78
2023-04-20T16:53:09.354Z,100169.53
2023-04-20T16:55:36.555Z,100183.63
2023-04-20T16:58:03.185Z,100185.59
2023-04-20T17:00:31.864Z,100184.81
2023-04-20T17:03:01.252Z,100192.19
2023-04-20T17:05:28.716Z,100196.16
2023-04-20T17:07:55.872Z,100183.22
2023-04-20T17:10:23.375Z,100186.03
2023-04-20T17:12:50.528Z,100189.59
2023-04-20T17:15:17.387Z,100187.91
2023-04-20T17:17:43.944Z,100179.28
2023-04-20T17:20:13.003Z,100186.31
2023-04-20T17:22:39.791Z,100190.13
2023-04-20T17:25:08.124Z,100195.44
2023-04-20T17:27:35.604Z,100197.28
2023-04-20T17:30:03.514Z,100199.97
2023-04-20T17:32:31.615Z,100200.09
2023-04-20T17:35:02.283Z,100199.25
2023-04-20T17:40:10.986Z,100212.78
2023-04-20T17:45:19.142Z,100202.31
2023-04-20T17:47:48.618Z,100218.31
2023-04-20T17:50:17.263Z,100216.72
2023-04-20T17:52:45.064Z,100222.91
2023-04-20T17:55:12.697Z,100216.81
2023-04-20T17:57:39.840Z,100220.22
2023-04-20T18:00:09.782Z,100235.22
2023-04-20T18:02:43.437Z,100230.13
2023-04-20T18:05:10.863Z,100229.34
2023-04-20T18:07:37.831Z,100231.06
2023-04-20T18:10:07.236Z,100225.75
2023-04-20T18:17:57.148Z,100246.41
2023-04-20T18:20:25.144Z,100232.34
2023-04-20T18:22:54.050Z,100244.59
2023-04-20T18:28:04.368Z,100245.50
2023-04-20T18:38:54.112Z,100234.88
2023-04-20T18:41:48.058Z,100235.72
2023-04-20T18:49:40.402Z,100236.84
2023-04-20T18:54:49.045Z,100240.38
2023-04-20T18:57:17.097Z,100240.38
2023-04-20T18:59:44.089Z,100245.75
2023-04-20T19:02:13.862Z,100244.88
2023-04-20T19:04:41.326Z,100240.47
2023-04-20T19:07:09.305Z,100250.00
2023-04-20T19:09:43.221Z,100243.00
2023-04-20T19:12:12.045Z,100242.25
2023-04-20T19:14:38.785Z,100243.22
2023-04-20T19:19:51.460Z,100232.69
2023-04-20T19:22:26.004Z,100232.69
2023-04-20T19:24:53.270Z,100229.09
2023-04-20T19:27:23.619Z,100230.94
2023-04-20T19:32:32.203Z,100233.47
2023-04-20T19:35:01.070Z,100231.66
2023-04-20T19:37:28.209Z,100221.97
2023-04-20T19:39:57.573Z,100217.50
2023-04-20T19:45:07.036Z,100228.94
2023-04-20T19:47:41.755Z,100223.63
2023-04-20T19:50:09.264Z,100227.19
2023-04-20T19:52:59.540Z,100229.00
2023-04-20T19:55:26.824Z,100225.56
2023-04-20T19:58:01.099Z,100220.16
2023-04-20T20:00:30.642Z,100219.28
2023-04-20T20:02:57.758Z,100216.56
2023-04-20T20:05:27.520Z,100225.56
2023-04-20T20:10:36.121Z,100218.31
2023-04-20T20:13:03.515Z,100222.75
2023-04-20T20:15:30.641Z,100221.00
2023-04-20T20:17:58.770Z,100212.91
2023-04-20T20:20:31.162Z,100220.81
2023-04-20T20:22:58.558Z,100226.09
2023-04-20T20:25:27.008Z,100223.41
2023-04-20T20:27:53.695Z,100233.00
